Time;durP1;ratioP1;P1;durP2;ratioP2;P2;SDS_P1;SDS_P2;PMS_P1;PMS_P2;Temp;Humidity;BMP_temperature;BMP_pressure;BME280_temperature;BME280_humidity;BME280_pressure;Samples;Min_cycle;Max_cycle;Signal;HPM_P1;HPM_P2
2021/03/14 00:01:06;;;;;;;5.45;2.47;;;5.00;83.00;;;;;;5111411;28;20043;-68
2021/03/14 00:03:33;;;;;;;4.53;2.40;;;5.00;82.80;;;;;;5111937;28;20047;-68
2021/03/14 00:06:00;;;;;;;3.55;2.25;;;5.00;82.70;;;;;;5110094;28;20035;-66
2021/03/14 00:08:28;;;;;;;2.55;2.00;;;5.10;82.60;;;;;;5111238;28;20032;-67
2021/03/14 00:11:03;;;;;;;3.90;2.10;;;5.10;82.60;;;;;;5111037;28;20024;-66
2021/03/14 00:13:34;;;;;;;5.25;2.00;;;5.00;82.80;;;;;;5112854;28;20110;-66
2021/03/14 00:16:01;;;;;;;7.13;2.65;;;5.00;82.90;;;;;;5097372;28;20085;-67
2021/03/14 00:18:34;;;;;;;5.03;2.25;;;5.00;82.90;;;;;;5091919;28;20032;-67
2021/03/14 00:21:01;;;;;;;3.05;2.00;;;5.00;82.70;;;;;;5108351;28;20036;-68
2021/03/14 00:23:27;;;;;;;5.03;2.38;;;5.10;82.40;;;;;;5134215;28;20135;-69
2021/03/14 00:25:56;;;;;;;5.25;2.85;;;5.00;82.20;;;;;;5100462;28;20024;-68
2021/03/14 00:28:23;;;;;;;8.48;2.45;;;5.10;82.00;;;;;;5074201;28;20035;-68
2021/03/14 00:30:49;;;;;;;6.35;2.30;;;5.10;82.00;;;;;;5105979;28;20035;-68
2021/03/14 00:33:15;;;;;;;3.97;2.38;;;5.10;81.90;;;;;;5116829;28;20146;-68
2021/03/14 00:35:41;;;;;;;3.33;2.17;;;5.10;82.10;;;;;;5106625;28;20040;-67
2021/03/14 00:38:07;;;;;;;3.13;2.50;;;5.10;82.20;;;;;;5095932;28;20106;-66
2021/03/14 00:40:32;;;;;;;4.85;2.78;;;5.10;82.40;;;;;;5102957;28;20048;-67
2021/03/14 00:43:04;;;;;;;5.50;2.58;;;5.10;82.60;;;;;;5116164;28;20031;-66
2021/03/14 00:45:32;;;;;;;4.72;2.67;;;5.10;82.80;;;;;;5109069;28;20028;-67
2021/03/14 00:48:03;;;;;;;3.15;2.45;;;5.10;82.80;;;;;;5077752;28;20042;-66
2021/03/14 00:50:31;;;;;;;4.35;2.17;;;5.10;83.00;;;;;;5096287;28;20062;-67
2021/03/14 00:52:57;;;;;;;7.20;2.70;;;5.10;83.00;;;;;;5095810;28;20051;-66
2021/03/14 00:55:22;;;;;;;3.50;2.63;;;5.00;83.00;;;;;;5099968;28;20067;-66
2021/03/14 00:57:48;;;;;;;3.80;2.55;;;5.10;83.10;;;;;;5115154;28;20043;-66
2021/03/14 01:00:14;;;;;;;4.32;2.90;;;5.10;83.30;;;;;;5111145;28;20147;-67
2021/03/14 01:02:39;;;;;;;3.92;2.80;;;5.00;83.30;;;;;;5111719;28;20035;-66
2021/03/14 01:05:05;;;;;;;5.00;2.58;;;5.00;83.90;;;;;;5113844;28;20085;-68
2021/03/14 01:07:31;;;;;;;6.68;2.90;;;5.00;84.20;;;;;;5099346;28;20032;-66
2021/03/14 01:09:57;;;;;;;4.75;2.83;;;4.90;84.70;;;;;;5083524;28;20647;-66
2021/03/14 01:12:22;;;;;;;5.22;2.83;;;4.90;85.10;;;;;;5115409;28;20039;-65
2021/03/14 01:14:48;;;;;;;5.63;2.70;;;4.90;85.10;;;;;;5115304;28;20504;-67
2021/03/14 01:17:13;;;;;;;4.93;2.63;;;4.90;85.20;;;;;;5114808;28;20058;-68
2021/03/14 01:19:39;;;;;;;7.60;2.88;;;4.90;85.10;;;;;;5115692;28;20043;-67
2021/03/14 01:22:04;;;;;;;6.68;2.88;;;4.80;85.20;;;;;;5098865;28;20801;-66
2021/03/14 01:24:30;;;;;;;6.85;3.72;;;4.80;85.00;;;;;;5100756;28;20103;-67
2021/03/14 01:26:57;;;;;;;3.88;2.88;;;4.90;84.90;;;;;;5102094;28;20043;-67
2021/03/14 01:29:22;;;;;;;4.22;2.90;;;4.90;84.90;;;;;;5094968;28;20031;-66
2021/03/14 01:31:48;;;;;;;5.25;3.00;;;4.90;84.30;;;;;;5088903;28;20039;-65
2021/03/14 01:34:14;;;;;;;6.45;3.30;;;4.90;84.30;;;;;;5096891;28;20039;-66
2021/03/14 01:36:39;;;;;;;5.75;3.08;;;4.90;84.10;;;;;;5087704;28;20376;-67
2021/03/14 01:39:05;;;;;;;5.45;2.67;;;4.90;83.90;;;;;;5078034;28;20050;-66
2021/03/14 01:41:31;;;;;;;6.68;3.08;;;4.90;84.20;;;;;;5084888;28;20379;-67
2021/03/14 01:43:57;;;;;;;8.63;3.17;;;4.90;84.40;;;;;;5115015;28;20051;-68
2021/03/14 01:46:23;;;;;;;7.45;3.00;;;4.90;84.70;;;;;;5107978;28;20036;-67
2021/03/14 01:48:49;;;;;;;10.65;3.55;;;4.80;85.00;;;;;;5059861;28;20066;-67
2021/03/14 01:51:15;;;;;;;8.38;3.40;;;4.80;85.10;;;;;;5114805;28;20063;-67
2021/03/14 01:53:40;;;;;;;5.75;2.90;;;4.80;85.30;;;;;;5114948;28;20531;-67
2021/03/14 01:56:07;;;;;;;6.55;3.10;;;4.80;85.20;;;;;;5114148;28;20567;-65
2021/03/14 01:58:34;;;;;;;7.05;3.40;;;4.80;85.20;;;;;;5114577;28;20059;-67
2021/03/14 02:01:00;;;;;;;6.47;2.92;;;4.90;84.80;;;;;;5113645;28;20039;-67
2021/03/14 02:03:25;;;;;;;8.32;3.78;;;4.80;84.80;;;;;;5114887;28;20050;-67
2021/03/14 02:05:52;;;;;;;5.40;3.00;;;4.80;85.20;;;;;;5113219;28;20023;-68
2021/03/14 02:08:19;;;;;;;6.22;3.30;;;4.80;85.20;;;;;;5076169;28;20479;-67
2021/03/14 02:10:48;;;;;;;8.57;3.45;;;4.80;85.30;;;;;;5093906;28;20043;-67
2021/03/14 02:13:16;;;;;;;5.80;3.42;;;4.80;85.40;;;;;;5114532;28;20032;-67
2021/03/14 02:15:56;;;;;;;10.55;3.35;;;4.70;85.60;;;;;;5114413;28;20118;-66
2021/03/14 02:18:25;;;;;;;5.65;3.08;;;4.70;85.80;;;;;;5076151;28;20516;-66
2021/03/14 02:20:51;;;;;;;4.68;3.17;;;4.70;85.40;;;;;;5076104;28;20027;-67
2021/03/14 02:23:31;;;;;;;7.63;3.30;;;4.70;85.80;;;;;;5095955;28;20475;-67
2021/03/14 02:26:19;;;;;;;6.50;3.53;;;4.60;85.90;;;;;;5112457;28;20022;-67
2021/03/14 02:28:47;;;;;;;8.52;3.53;;;4.50;86.00;;;;;;5094281;28;20024;-67
2021/03/14 02:31:16;;;;;;;5.00;3.38;;;4.50;85.70;;;;;;5094404;28;20522;-66
2021/03/14 02:33:43;;;;;;;5.88;3.50;;;4.60;85.60;;;;;;5114163;28;20093;-66
2021/03/14 02:36:11;;;;;;;7.57;3.70;;;4.70;84.90;;;;;;5095535;28;20478;-65
2021/03/14 02:38:41;;;;;;;7.25;3.63;;;4.60;84.90;;;;;;5093994;28;20104;-67
2021/03/14 02:41:07;;;;;;;5.47;3.42;;;4.70;84.80;;;;;;5093606;28;20484;-66
2021/03/14 02:43:35;;;;;;;4.70;3.10;;;4.70;84.60;;;;;;5112881;28;20479;-66
2021/03/14 02:46:01;;;;;;;5.03;3.78;;;4.70;84.40;;;;;;5094215;28;20510;-67
2021/03/14 02:48:28;;;;;;;7.03;4.10;;;4.70;84.10;;;;;;5114362;28;20032;-67
2021/03/14 02:50:57;;;;;;;8.60;3.72;;;4.70;84.50;;;;;;5110994;28;20123;-68
2021/03/14 02:53:23;;;;;;;5.72;3.67;;;4.70;84.70;;;;;;5094306;28;20024;-65
2021/03/14 02:55:51;;;;;;;7.93;3.97;;;4.70;84.80;;;;;;5099717;28;20510;-67
2021/03/14 02:58:18;;;;;;;7.72;3.25;;;4.60;85.10;;;;;;5094606;28;20055;-67
2021/03/14 03:00:44;;;;;;;7.30;3.78;;;4.60;84.90;;;;;;5112450;28;20396;-67
2021/03/14 03:03:10;;;;;;;7.63;4.03;;;4.60;84.90;;;;;;5112871;28;20036;-66
2021/03/14 03:05:36;;;;;;;8.60;3.67;;;4.70;84.60;;;;;;5109895;28;20035;-67
2021/03/14 03:08:04;;;;;;;6.63;3.83;;;4.70;84.80;;;;;;5112873;28;20023;-66
2021/03/14 03:10:37;;;;;;;6.57;3.80;;;4.70;84.90;;;;;;5110759;28;20034;-67
2021/03/14 03:13:04;;;;;;;8.82;3.50;;;4.60;84.70;;;;;;5112417;28;20378;-69
2021/03/14 03:15:30;;;;;;;6.32;3.50;;;4.70;84.40;;;;;;5111811;28;20072;-67
2021/03/14 03:17:57;;;;;;;8.05;4.05;;;4.70;84.70;;;;;;5113001;28;20028;-66
2021/03/14 03:20:27;;;;;;;5.05;3.15;;;4.70;84.10;;;;;;5105443;28;20046;-66
2021/03/14 03:22:53;;;;;;;5.75;3.63;;;4.70;83.90;;;;;;5093247;28;20020;-62
2021/03/14 03:25:20;;;;;;;5.32;3.85;;;4.70;83.80;;;;;;5105627;28;20031;-63
2021/03/14 03:27:46;;;;;;;6.45;4.00;;;4.70;84.10;;;;;;5115389;28;20035;-63
2021/03/14 03:30:14;;;;;;;7.40;4.05;;;4.70;84.00;;;;;;5110078;28;20036;-63
2021/03/14 03:32:39;;;;;;;5.50;3.30;;;4.70;84.00;;;;;;5093122;28;20095;-63
2021/03/14 03:35:10;;;;;;;6.22;3.60;;;4.70;83.70;;;;;;5093895;28;20111;-65
2021/03/14 03:37:37;;;;;;;6.93;3.60;;;4.70;83.70;;;;;;5093318;28;20395;-66
2021/03/14 03:40:09;;;;;;;6.03;3.67;;;4.70;83.60;;;;;;5095542;28;20043;-64
2021/03/14 03:42:47;;;;;;;4.60;3.38;;;4.70;83.20;;;;;;5113131;28;20123;-67
2021/03/14 03:45:14;;;;;;;7.15;3.42;;;4.70;83.00;;;;;;5109484;28;20391;-68
2021/03/14 03:47:43;;;;;;;4.75;3.67;;;4.70;83.40;;;;;;5093376;28;20126;-67
2021/03/14 03:50:09;;;;;;;6.20;3.65;;;4.70;83.30;;;;;;5092674;28;20023;-67
2021/03/14 03:52:36;;;;;;;6.38;3.67;;;4.70;83.00;;;;;;5108429;28;20040;-67
2021/03/14 03:55:03;;;;;;;5.50;3.40;;;4.70;83.30;;;;;;5092702;28;20046;-65
2021/03/14 03:57:29;;;;;;;6.38;3.63;;;4.70;83.60;;;;;;5092661;28;20032;-68
2021/03/14 03:59:55;;;;;;;6.88;3.90;;;4.60;83.20;;;;;;5092209;28;20047;-64
2021/03/14 04:02:23;;;;;;;5.47;3.67;;;4.70;83.00;;;;;;5111871;28;20039;-64
2021/03/14 04:04:49;;;;;;;4.28;3.28;;;4.70;83.20;;;;;;5093146;28;20062;-66
2021/03/14 04:07:15;;;;;;;6.40;3.50;;;4.70;83.20;;;;;;5094000;28;20031;-66
2021/03/14 04:09:43;;;;;;;6.90;3.60;;;4.70;83.40;;;;;;5112392;28;20156;-64
2021/03/14 04:12:10;;;;;;;8.45;4.10;;;4.60;83.80;;;;;;5094679;28;20024;-63
2021/03/14 04:14:36;;;;;;;6.97;4.00;;;4.60;83.90;;;;;;5091904;28;20039;-63
2021/03/14 04:17:05;;;;;;;5.95;3.60;;;4.60;83.80;;;;;;5089504;28;20036;-63
2021/03/14 04:19:34;;;;;;;8.07;3.83;;;4.60;83.80;;;;;;5112501;28;20031;-64
2021/03/14 04:22:01;;;;;;;4.80;3.58;;;4.60;83.80;;;;;;5096691;28;20078;-64
2021/03/14 04:24:29;;;;;;;4.50;3.83;;;4.60;83.60;;;;;;5097418;28;20036;-65
2021/03/14 04:26:57;;;;;;;5.60;3.40;;;4.60;83.80;;;;;;5099318;28;20028;-63
2021/03/14 04:29:24;;;;;;;7.80;3.85;;;4.50;83.80;;;;;;5091988;28;20085;-64
2021/03/14 04:31:51;;;;;;;5.80;3.40;;;4.50;83.80;;;;;;5085865;28;20039;-64
2021/03/14 04:34:19;;;;;;;5.82;3.67;;;4.50;84.10;;;;;;5112120;28;20051;-64
2021/03/14 04:36:46;;;;;;;6.07;3.72;;;4.50;84.10;;;;;;5100553;28;20020;-64
2021/03/14 04:39:13;;;;;;;4.60;3.88;;;4.50;84.50;;;;;;5057317;28;20043;-64
2021/03/14 04:41:42;;;;;;;4.57;3.72;;;4.50;84.40;;;;;;5101291;28;20031;-64
2021/03/14 04:44:09;;;;;;;6.50;3.45;;;4.50;84.60;;;;;;5111543;28;20053;-64
2021/03/14 04:46:35;;;;;;;5.38;3.97;;;4.40;84.90;;;;;;5103432;28;20036;-65
2021/03/14 04:49:01;;;;;;;6.40;4.28;;;4.40;85.30;;;;;;5092004;28;20024;-63
2021/03/14 04:51:28;;;;;;;4.57;3.78;;;4.40;85.30;;;;;;5086707;28;20531;-64
2021/03/14 04:53:55;;;;;;;5.65;4.20;;;4.30;85.20;;;;;;5111977;28;20411;-65
2021/03/14 04:56:22;;;;;;;6.35;4.40;;;4.30;85.70;;;;;;5088360;28;20040;-64
2021/03/14 04:58:49;;;;;;;6.43;4.35;;;4.20;86.00;;;;;;5091982;28;20097;-64
2021/03/14 05:01:18;;;;;;;8.75;4.60;;;4.30;85.90;;;;;;5092484;28;20067;-63
2021/03/14 05:03:45;;;;;;;6.80;4.93;;;4.20;86.00;;;;;;5091333;28;20475;-63
2021/03/14 05:06:13;;;;;;;5.20;4.40;;;4.20;86.10;;;;;;5103005;28;20039;-63
2021/03/14 05:08:42;;;;;;;7.18;4.82;;;4.30;86.00;;;;;;5111992;28;20064;-64
2021/03/14 05:11:08;;;;;;;6.45;4.75;;;4.30;85.90;;;;;;5091676;28;20562;-65
2021/03/14 05:13:36;;;;;;;6.05;4.75;;;4.30;86.00;;;;;;5091927;28;20672;-64
2021/03/14 05:16:02;;;;;;;6.90;4.68;;;4.30;85.80;;;;;;5093459;28;20693;-64
2021/03/14 05:18:28;;;;;;;8.18;4.70;;;4.40;85.60;;;;;;5095403;28;20187;-64
2021/03/14 05:20:55;;;;;;;5.68;4.70;;;4.40;85.60;;;;;;5095066;28;20028;-64
2021/03/14 05:23:20;;;;;;;7.32;4.80;;;4.40;85.50;;;;;;5114445;28;20040;-64
2021/03/14 05:25:46;;;;;;;12.25;5.40;;;4.40;85.60;;;;;;5100739;28;20028;-63
2021/03/14 05:28:13;;;;;;;6.63;4.93;;;4.50;85.30;;;;;;5114949;28;20119;-64
2021/03/14 05:30:39;;;;;;;6.45;5.63;;;4.50;85.40;;;;;;5115428;28;20035;-64
2021/03/14 05:33:05;;;;;;;9.20;5.82;;;4.50;85.40;;;;;;5095428;28;20039;-65
2021/03/14 05:35:32;;;;;;;8.27;6.00;;;4.50;85.30;;;;;;5115583;28;20028;-64
2021/03/14 05:37:59;;;;;;;9.82;5.40;;;4.50;85.70;;;;;;5113756;28;20111;-64
2021/03/14 05:40:26;;;;;;;10.48;5.50;;;4.60;85.50;;;;;;5115618;28;20036;-64
2021/03/14 05:42:52;;;;;;;6.40;5.55;;;4.50;85.50;;;;;;5101428;28;20040;-64
2021/03/14 05:45:18;;;;;;;7.43;5.85;;;4.50;85.80;;;;;;5076534;28;20032;-64
2021/03/14 05:47:44;;;;;;;8.57;5.63;;;4.50;85.50;;;;;;5106149;28;20079;-64
2021/03/14 05:50:13;;;;;;;9.75;6.38;;;4.50;85.80;;;;;;5098775;28;20031;-64
2021/03/14 05:52:41;;;;;;;15.80;6.72;;;4.60;85.90;;;;;;5115917;28;20043;-63
2021/03/14 05:55:14;;;;;;;8.07;6.05;;;4.50;86.10;;;;;;5115797;28;20055;-64
2021/03/14 05:57:50;;;;;;;10.52;6.28;;;4.50;85.90;;;;;;5114461;28;20031;-63
2021/03/14 06:00:25;;;;;;;7.85;6.05;;;4.50;86.00;;;;;;5114950;28;20039;-64
2021/03/14 06:02:55;;;;;;;8.23;6.25;;;4.60;85.80;;;;;;5096241;28;20506;-64
2021/03/14 06:05:22;;;;;;;9.27;6.03;;;4.60;86.00;;;;;;5115523;28;20126;-64
2021/03/14 06:07:48;;;;;;;8.15;6.82;;;4.70;85.70;;;;;;5114572;28;20031;-64
2021/03/14 06:10:15;;;;;;;12.75;6.80;;;4.60;85.90;;;;;;5115048;28;20050;-64
2021/03/14 06:12:43;;;;;;;8.25;6.75;;;4.60;85.90;;;;;;5113723;28;20050;-64
2021/03/14 06:15:09;;;;;;;8.85;6.38;;;4.50;86.10;;;;;;5079800;28;20032;-63
2021/03/14 06:17:35;;;;;;;7.32;6.10;;;4.60;86.50;;;;;;5107855;28;20036;-64
2021/03/14 06:20:02;;;;;;;8.75;6.53;;;4.60;86.30;;;;;;5094459;28;20032;-64
2021/03/14 06:22:29;;;;;;;9.60;6.70;;;4.60;86.00;;;;;;5064281;28;20060;-64
2021/03/14 06:24:54;;;;;;;13.65;7.30;;;4.70;85.90;;;;;;5096107;28;20032;-64
2021/03/14 06:27:51;;;;;;;8.30;6.60;;;4.70;85.60;;;;;;5113400;28;20031;-64
2021/03/14 06:30:18;;;;;;;7.82;6.22;;;4.70;85.60;;;;;;5114458;28;20036;-64
2021/03/14 06:33:05;;;;;;;8.13;6.43;;;4.70;86.00;;;;;;5127053;27;20062;-64
2021/03/14 06:35:52;;;;;;;7.70;5.95;;;4.60;86.20;;;;;;5114373;28;20506;-65
2021/03/14 06:38:23;;;;;;;7.93;6.32;;;4.70;85.70;;;;;;5096047;28;20039;-64
2021/03/14 06:40:51;;;;;;;9.38;6.20;;;4.80;85.50;;;;;;5114964;28;20023;-68
2021/03/14 06:43:17;;;;;;;9.48;6.85;;;4.80;85.40;;;;;;5103991;28;20461;-65
2021/03/14 06:45:44;;;;;;;11.45;6.75;;;4.80;85.50;;;;;;5093583;28;20036;-68
2021/03/14 06:48:10;;;;;;;8.45;6.30;;;4.80;85.60;;;;;;5060167;28;20534;-64
2021/03/14 06:50:40;;;;;;;7.95;6.38;;;4.90;85.40;;;;;;5100640;28;20134;-65
2021/03/14 06:53:18;;;;;;;11.23;6.85;;;4.90;85.50;;;;;;5113480;28;20406;-65
2021/03/14 06:55:50;;;;;;;8.20;6.25;;;4.90;85.60;;;;;;5114008;28;20132;-64
2021/03/14 06:58:29;;;;;;;10.73;7.38;;;4.90;84.90;;;;;;5088271;28;20040;-66
2021/03/14 07:01:15;;;;;;;9.88;6.30;;;5.00;85.00;;;;;;5093047;28;20043;-65
2021/03/14 07:03:47;;;;;;;9.57;6.60;;;5.00;84.50;;;;;;5103803;28;20476;-65
2021/03/14 07:06:21;;;;;;;7.13;6.43;;;5.00;84.40;;;;;;5095550;28;20046;-65
2021/03/14 07:08:50;;;;;;;9.50;6.28;;;5.20;83.80;;;;;;5111849;28;20024;-66
2021/03/14 07:11:39;;;;;;;10.38;7.25;;;5.20;83.60;;;;;;5113569;28;20122;-66
2021/03/14 07:14:10;;;;;;;10.20;6.68;;;5.20;83.80;;;;;;5112649;28;20096;-66
2021/03/14 07:16:50;;;;;;;8.32;6.25;;;5.20;83.80;;;;;;5113613;28;20130;-65
2021/03/14 07:19:28;;;;;;;12.40;7.72;;;5.20;83.50;;;;;;5098907;28;20439;-65
2021/03/14 07:22:05;;;;;;;11.95;6.68;;;5.20;83.50;;;;;;5074638;28;20263;-64
2021/03/14 07:24:41;;;;;;;10.35;6.50;;;5.30;83.40;;;;;;5108631;28;20386;-67
2021/03/14 07:27:24;;;;;;;8.88;6.53;;;5.40;82.90;;;;;;5113143;28;20039;-65
2021/03/14 07:29:52;;;;;;;11.95;6.90;;;5.40;82.30;;;;;;5113022;28;20119;-65
2021/03/14 07:32:18;;;;;;;8.68;6.65;;;5.30;82.70;;;;;;5094193;28;20058;-64
2021/03/14 07:34:43;;;;;;;8.73;6.20;;;5.30;82.70;;;;;;5109066;28;20029;-67
2021/03/14 07:37:09;;;;;;;9.23;6.72;;;5.40;81.90;;;;;;5114088;28;20122;-65
2021/03/14 07:39:35;;;;;;;8.40;6.00;;;5.40;82.10;;;;;;5100901;28;20036;-64
2021/03/14 07:42:01;;;;;;;9.23;6.65;;;5.50;81.70;;;;;;5093097;28;20065;-63
2021/03/14 07:44:27;;;;;;;8.93;6.15;;;5.60;81.60;;;;;;5094991;28;20503;-64
2021/03/14 07:46:54;;;;;;;9.20;6.60;;;5.60;81.40;;;;;;5074910;28;20058;-65
2021/03/14 07:49:23;;;;;;;10.50;6.95;;;5.50;81.60;;;;;;5103940;28;20032;-64
2021/03/14 07:52:03;;;;;;;10.80;6.57;;;5.60;81.70;;;;;;5112430;28;20386;-65
2021/03/14 07:54:46;;;;;;;10.60;6.63;;;5.60;81.70;;;;;;5101150;28;20035;-65
2021/03/14 07:57:17;;;;;;;10.38;6.80;;;5.70;81.30;;;;;;5092693;28;20044;-65
2021/03/14 07:59:43;;;;;;;11.13;8.07;;;5.60;81.40;;;;;;5088636;28;20048;-65
2021/03/14 08:02:18;;;;;;;9.52;6.60;;;5.60;81.70;;;;;;5109770;28;20111;-65
2021/03/14 08:04:54;;;;;;;10.23;6.75;;;5.70;81.40;;;;;;5112339;28;20032;-65
2021/03/14 08:07:45;;;;;;;12.55;7.22;;;5.80;81.00;;;;;;5092026;28;20046;-65
2021/03/14 08:10:31;;;;;;;8.82;7.18;;;5.80;81.20;;;;;;5096953;28;20055;-64
2021/03/14 08:12:56;;;;;;;12.43;6.97;;;5.80;81.60;;;;;;5109664;28;20031;-64
2021/03/14 08:15:28;;;;;;;11.68;6.70;;;5.80;81.40;;;;;;5113370;28;20035;-66
2021/03/14 08:17:55;;;;;;;9.65;7.22;;;5.90;81.00;;;;;;5077785;28;20468;-65
2021/03/14 08:20:44;;;;;;;9.38;6.90;;;5.90;81.40;;;;;;5092578;28;20027;-65
2021/03/14 08:23:17;;;;;;;10.93;7.43;;;5.90;81.20;;;;;;5111901;28;20040;-65
2021/03/14 08:25:52;;;;;;;11.05;6.68;;;6.00;80.90;;;;;;5096165;28;20042;-69
2021/03/14 08:28:28;;;;;;;18.02;7.45;;;6.00;80.40;;;;;;5095498;28;20058;-65
2021/03/14 08:31:02;;;;;;;15.68;7.43;;;6.00;80.70;;;;;;5074724;28;20029;-64
2021/03/14 08:33:29;;;;;;;12.52;8.73;;;6.00;80.30;;;;;;5113090;28;20047;-65
2021/03/14 08:36:05;;;;;;;12.50;7.38;;;6.00;80.40;;;;;;5094804;28;20035;-65
2021/03/14 08:38:34;;;;;;;13.20;8.00;;;6.00;79.90;;;;;;5092801;28;20563;-65
2021/03/14 08:41:22;;;;;;;14.85;7.63;;;6.00;80.10;;;;;;5092634;28;20059;-65
2021/03/14 08:44:10;;;;;;;14.57;7.63;;;6.10;79.60;;;;;;5091776;28;20047;-66
2021/03/14 08:46:51;;;;;;;13.00;7.68;;;6.20;79.60;;;;;;5092208;28;20087;-65
2021/03/14 08:49:18;;;;;;;15.10;7.82;;;6.10;79.80;;;;;;5091912;28;20016;-65
2021/03/14 08:51:45;;;;;;;13.40;8.68;;;6.20;79.90;;;;;;5092488;28;20490;-65
2021/03/14 08:54:11;;;;;;;10.10;9.02;;;6.10;79.90;;;;;;5116031;28;20168;-65
2021/03/14 08:56:37;;;;;;;16.00;8.50;;;6.20;79.80;;;;;;5130646;27;20028;-65
2021/03/14 08:59:12;;;;;;;9.23;7.65;;;6.30;79.70;;;;;;5116085;28;20042;-65
2021/03/14 09:01:41;;;;;;;;;;;6.20;79.60;;;;;;5116400;28;20035;-65
2021/03/14 09:04:22;;;;;;;11.93;8.65;;;6.20;79.80;;;;;;5116119;28;19963;-66
2021/03/14 09:06:47;;;;;;;12.68;8.25;;;6.30;79.60;;;;;;5115535;28;20498;-65
2021/03/14 09:09:17;;;;;;;13.55;8.68;;;6.30;79.60;;;;;;5116267;28;20042;-65
2021/03/14 09:11:46;;;;;;;14.57;9.23;;;6.20;80.00;;;;;;5114503;28;20024;-66
2021/03/14 09:14:30;;;;;;;17.15;10.18;;;6.30;79.50;;;;;;5077445;28;20097;-65
2021/03/14 09:16:58;;;;;;;14.73;9.23;;;6.30;79.20;;;;;;5096143;28;20027;-66
2021/03/14 09:19:29;;;;;;;16.63;9.02;;;6.30;79.60;;;;;;5077506;28;20040;-65
2021/03/14 09:22:04;;;;;;;12.07;8.70;;;6.30;79.70;;;;;;5096923;28;20032;-66
2021/03/14 09:24:32;;;;;;;;;;;6.30;79.70;;;;;;5116122;28;20040;-65
2021/03/14 09:27:10;;;;;;;12.30;8.90;;;6.30;79.10;;;;;;5097366;28;19915;-66
2021/03/14 09:29:38;;;;;;;15.73;9.07;;;6.30;79.20;;;;;;5116110;28;20035;-67
2021/03/14 09:32:17;;;;;;;21.17;10.52;;;6.30;79.60;;;;;;5113715;28;20023;-65
2021/03/14 09:34:46;;;;;;;14.07;9.18;;;6.30;79.90;;;;;;5115390;28;20481;-65
2021/03/14 09:37:25;;;;;;;14.98;9.35;;;6.30;80.10;;;;;;5095351;28;20084;-64
2021/03/14 09:40:06;;;;;;;19.25;9.48;;;6.40;80.00;;;;;;5095247;28;20126;-64
2021/03/14 09:42:31;;;;;;;16.90;9.82;;;6.50;79.90;;;;;;5099294;28;20024;-65
2021/03/14 09:45:15;;;;;;;13.32;10.05;;;6.40;80.00;;;;;;5115652;28;20046;-65
2021/03/14 09:48:01;;;;;;;13.25;9.38;;;6.30;80.60;;;;;;5110432;28;20032;-64
2021/03/14 09:50:28;;;;;;;15.27;10.18;;;6.40;80.20;;;;;;5082622;28;20027;-65
2021/03/14 09:52:57;;;;;;;15.27;9.60;;;6.30;79.90;;;;;;5114742;28;20031;-66
2021/03/14 09:55:28;;;;;;;12.18;8.80;;;6.30;79.60;;;;;;5099938;28;20035;-65
2021/03/14 09:57:54;;;;;;;11.13;8.85;;;6.30;79.90;;;;;;5077361;28;20036;-64
2021/03/14 10:00:21;;;;;;;17.33;9.50;;;6.40;80.40;;;;;;5094582;28;20055;-65
2021/03/14 10:02:49;;;;;;;12.90;8.52;;;6.40;80.10;;;;;;5079522;28;20081;-65
2021/03/14 10:05:15;;;;;;;13.18;9.05;;;6.50;79.70;;;;;;5114303;28;20114;-65
2021/03/14 10:07:40;;;;;;;14.20;8.73;;;6.60;79.80;;;;;;5113381;28;20040;-66
2021/03/14 10:10:10;;;;;;;15.18;8.60;;;6.70;78.80;;;;;;5114210;28;20072;-66
2021/03/14 10:12:36;;;;;;;13.88;9.60;;;6.80;78.80;;;;;;5112797;28;20032;-65
2021/03/14 10:15:03;;;;;;;10.35;8.20;;;6.80;79.30;;;;;;5093793;28;20080;-66
2021/03/14 10:17:29;;;;;;;11.75;8.13;;;6.90;78.80;;;;;;5075868;28;20047;-65
2021/03/14 10:19:54;;;;;;;12.63;8.52;;;6.70;78.20;;;;;;5114376;28;20024;-66
2021/03/14 10:22:33;;;;;;;11.57;9.07;;;6.70;79.00;;;;;;5096101;28;20078;-66
2021/03/14 10:24:59;;;;;;;12.98;8.68;;;6.80;79.30;;;;;;5103587;28;20043;-65
2021/03/14 10:27:26;;;;;;;12.15;8.73;;;6.80;79.60;;;;;;5096522;28;20387;-67
2021/03/14 10:30:00;;;;;;;12.75;9.30;;;6.80;78.90;;;;;;5095307;28;20127;-66
2021/03/14 10:32:28;;;;;;;11.95;8.63;;;6.80;79.30;;;;;;5097366;28;20051;-66
2021/03/14 10:35:03;;;;;;;14.07;8.75;;;6.90;78.60;;;;;;5095289;28;20051;-65
2021/03/14 10:37:34;;;;;;;13.10;9.65;;;7.00;78.20;;;;;;5114068;28;20360;-65
2021/03/14 10:40:12;;;;;;;16.00;9.48;;;7.00;77.40;;;;;;5101485;28;20039;-65
2021/03/14 10:42:41;;;;;;;14.48;10.18;;;7.00;77.90;;;;;;5093547;28;20059;-65
2021/03/14 10:45:16;;;;;;;13.65;9.68;;;7.00;76.90;;;;;;5075623;28;20050;-65
2021/03/14 10:47:43;;;;;;;11.77;9.23;;;7.00;77.50;;;;;;5093666;28;20431;-64
2021/03/14 10:50:20;;;;;;;10.55;9.20;;;7.00;77.30;;;;;;5088253;28;20479;-64
2021/03/14 10:53:05;;;;;;;14.07;9.23;;;6.90;77.70;;;;;;5113572;28;20429;-65
2021/03/14 10:55:31;;;;;;;12.90;8.85;;;6.90;77.50;;;;;;5096632;28;20536;-66
2021/03/14 10:58:11;;;;;;;14.63;8.85;;;6.90;77.90;;;;;;5080072;28;20110;-64
2021/03/14 11:00:41;;;;;;;17.25;9.68;;;7.00;77.80;;;;;;5113490;28;20044;-66
2021/03/14 11:03:12;;;;;;;14.73;10.18;;;7.10;77.50;;;;;;5089414;28;20036;-65
2021/03/14 11:05:42;;;;;;;16.25;10.40;;;7.00;77.50;;;;;;5082278;28;20436;-65
2021/03/14 11:08:08;;;;;;;14.88;10.27;;;7.00;77.50;;;;;;5112880;28;20026;-62
2021/03/14 11:10:34;;;;;;;15.45;9.15;;;7.10;77.30;;;;;;5095938;28;20111;-65
2021/03/14 11:13:14;;;;;;;12.30;8.70;;;7.20;77.60;;;;;;5091735;28;20386;-65
2021/03/14 11:15:41;;;;;;;13.70;8.75;;;7.30;77.30;;;;;;5095906;28;20510;-66
2021/03/14 11:18:06;;;;;;;15.10;9.63;;;7.30;76.70;;;;;;5113363;28;20031;-65
2021/03/14 11:20:34;;;;;;;15.13;10.23;;;7.10;77.10;;;;;;5090138;28;20470;-65
2021/03/14 11:23:03;;;;;;;11.77;9.52;;;7.10;77.70;;;;;;5113131;28;20032;-63
2021/03/14 11:25:31;;;;;;;18.10;10.18;;;7.30;77.30;;;;;;5086511;28;20028;-64
2021/03/14 11:27:58;;;;;;;14.65;9.10;;;7.20;77.50;;;;;;5090433;28;20035;-65
2021/03/14 11:30:29;;;;;;;12.63;9.32;;;7.30;77.30;;;;;;5105577;28;20356;-65
2021/03/14 11:32:55;;;;;;;13.88;9.75;;;7.50;76.50;;;;;;5092688;28;20032;-66
2021/03/14 11:35:20;;;;;;;13.18;9.90;;;7.30;76.30;;;;;;5063550;28;20055;-64
2021/03/14 11:37:46;;;;;;;14.15;8.73;;;7.20;77.60;;;;;;5112614;28;20465;-63
2021/03/14 11:40:13;;;;;;;14.05;9.20;;;7.30;76.70;;;;;;5110287;28;20043;-64
2021/03/14 11:42:39;;;;;;;13.00;9.32;;;7.30;76.00;;;;;;5093872;28;20118;-65
2021/03/14 11:45:06;;;;;;;13.27;8.73;;;7.30;76.40;;;;;;5091697;28;20153;-64
2021/03/14 11:47:35;;;;;;;11.40;8.10;;;7.40;76.40;;;;;;5092516;28;20036;-64
2021/03/14 11:50:01;;;;;;;12.43;8.88;;;7.40;75.50;;;;;;5093880;28;20096;-66
2021/03/14 11:52:28;;;;;;;18.58;9.77;;;7.50;75.70;;;;;;5092473;28;20075;-66
2021/03/14 11:54:53;;;;;;;14.07;9.43;;;7.60;75.10;;;;;;5092266;28;20067;-66
2021/03/14 11:57:19;;;;;;;13.73;8.57;;;7.60;74.60;;;;;;5092439;28;20449;-68
2021/03/14 11:59:44;;;;;;;10.85;7.85;;;7.60;74.10;;;;;;5092071;28;20372;-63
2021/03/14 12:02:10;;;;;;;11.07;8.80;;;7.50;74.30;;;;;;5110745;28;20070;-65
2021/03/14 12:04:35;;;;;;;10.57;8.63;;;7.50;74.60;;;;;;5109751;28;20062;-65
2021/03/14 12:07:01;;;;;;;12.88;7.93;;;7.50;75.00;;;;;;5111368;28;20394;-66
2021/03/14 12:09:27;;;;;;;13.75;7.93;;;7.50;74.70;;;;;;5109277;28;20053;-66
2021/03/14 12:11:53;;;;;;;12.10;8.40;;;7.60;73.30;;;;;;5111441;28;20030;-66
2021/03/14 12:14:20;;;;;;;13.05;8.25;;;7.50;74.10;;;;;;5074921;28;20039;-65
2021/03/14 12:16:46;;;;;;;13.27;8.63;;;7.60;74.20;;;;;;5108077;28;20085;-66
2021/03/14 12:19:11;;;;;;;13.00;8.20;;;7.50;73.80;;;;;;5111616;28;20035;-64
2021/03/14 12:21:37;;;;;;;12.82;8.85;;;7.40;74.00;;;;;;5094090;28;20088;-65
2021/03/14 12:24:03;;;;;;;12.15;8.30;;;7.60;73.90;;;;;;5089457;28;20031;-66
2021/03/14 12:26:28;;;;;;;10.57;7.78;;;7.50;73.80;;;;;;5093095;28;20031;-66
2021/03/14 12:28:54;;;;;;;9.45;7.50;;;7.60;74.20;;;;;;5094516;28;20024;-68
2021/03/14 12:31:20;;;;;;;12.82;7.72;;;7.60;73.60;;;;;;5094929;28;20490;-67
2021/03/14 12:33:45;;;;;;;11.60;7.28;;;7.60;72.70;;;;;;5094208;28;20104;-64
2021/03/14 12:36:15;;;;;;;11.00;7.60;;;7.60;73.60;;;;;;5108397;28;20039;-65
2021/03/14 12:38:42;;;;;;;13.10;7.88;;;7.60;73.60;;;;;;5110588;28;20039;-65
2021/03/14 12:41:07;;;;;;;9.77;7.20;;;7.60;73.00;;;;;;5101711;28;20495;-64
2021/03/14 12:43:34;;;;;;;12.50;7.70;;;7.60;72.10;;;;;;5077684;28;20055;-63
2021/03/14 12:45:59;;;;;;;11.60;7.22;;;7.60;72.10;;;;;;5111911;28;20108;-65
2021/03/14 12:48:25;;;;;;;8.32;7.25;;;7.60;72.10;;;;;;5099200;28;20040;-64
2021/03/14 12:50:51;;;;;;;8.95;6.65;;;7.80;71.00;;;;;;5091335;28;20028;-65
2021/03/14 12:53:19;;;;;;;10.77;7.18;;;7.80;70.00;;;;;;5102098;28;20056;-65
2021/03/14 12:55:45;;;;;;;11.85;7.25;;;7.90;70.50;;;;;;5090911;28;20028;-65
2021/03/14 12:58:13;;;;;;;10.20;7.28;;;7.90;70.60;;;;;;5114790;28;20038;-64
2021/03/14 13:00:38;;;;;;;13.55;7.63;;;8.00;71.30;;;;;;5079693;28;20121;-65
2021/03/14 13:03:04;;;;;;;10.35;7.38;;;7.90;72.30;;;;;;5098070;28;20040;-64